Time;durP1;ratioP1;P1;durP2;ratioP2;P2;SDS_P1;SDS_P2;PMS_P1;PMS_P2;Temp;Humidity;BMP_temperature;BMP_pressure;BME280_temperature;BME280_humidity;BME280_pressure;Samples;Min_cycle;Max_cycle;Signal;HPM_P1;HPM_P2
2022/01/22 00:01:04;;;;;;;20.42;13.70;;;4.60;81.80;;;;;;5051830;28;20148;-87
2022/01/22 00:03:32;;;;;;;18.63;14.90;;;4.60;81.80;;;;;;5052625;28;20045;-87
2022/01/22 00:06:00;;;;;;;20.63;16.17;;;4.60;81.80;;;;;;5052410;28;20402;-87
2022/01/22 00:08:27;;;;;;;20.63;15.85;;;4.60;81.80;;;;;;5051441;28;20041;-87
2022/01/22 00:10:54;;;;;;;21.33;15.90;;;4.60;81.80;;;;;;5050506;28;20045;-87
2022/01/22 00:16:18;;;;;;;23.08;16.52;;;4.60;81.90;;;;;;5012650;28;20062;-87
2022/01/22 00:18:46;;;;;;;20.90;17.08;;;4.60;81.90;;;;;;4995866;28;20046;-86
2022/01/22 00:21:13;;;;;;;23.05;17.90;;;4.60;81.90;;;;;;5007439;28;20437;-87
2022/01/22 00:23:47;;;;;;;22.27;17.50;;;4.60;81.90;;;;;;5012059;28;20068;-87
2022/01/22 00:26:15;;;;;;;21.50;17.65;;;4.60;81.90;;;;;;5008558;28;20414;-87
2022/01/22 00:28:42;;;;;;;24.02;17.77;;;4.60;81.90;;;;;;5011168;28;20048;-87
2022/01/22 00:31:09;;;;;;;21.80;17.85;;;4.60;81.90;;;;;;5012422;28;20050;-87
2022/01/22 00:33:36;;;;;;;25.00;18.13;;;4.60;81.90;;;;;;5007366;28;20454;-87
2022/01/22 00:36:03;;;;;;;23.90;19.40;;;4.60;81.90;;;;;;4995126;28;20056;-88
2022/01/22 00:38:30;;;;;;;22.42;18.50;;;4.60;81.90;;;;;;5011054;28;20050;-87
2022/01/22 00:40:57;;;;;;;23.52;19.15;;;4.60;81.90;;;;;;5010588;28;20522;-87
2022/01/22 00:43:25;;;;;;;22.63;18.77;;;4.60;82.00;;;;;;5008809;28;20053;-88
2022/01/22 00:45:52;;;;;;;23.02;18.38;;;4.60;82.00;;;;;;5010839;28;20053;-87
2022/01/22 00:48:20;;;;;;;21.90;18.30;;;4.60;82.00;;;;;;5007116;28;20054;-87
2022/01/22 00:50:51;;;;;;;23.30;19.15;;;4.60;82.00;;;;;;5007084;28;20101;-88
2022/01/22 00:53:18;;;;;;;22.65;18.85;;;4.60;82.00;;;;;;5039907;28;20040;-87
2022/01/22 00:55:45;;;;;;;22.67;19.20;;;4.60;82.00;;;;;;5051722;28;20049;-87
2022/01/22 00:58:12;;;;;;;25.55;19.58;;;4.60;82.00;;;;;;5052658;28;20506;-87
2022/01/22 01:00:39;;;;;;;23.77;19.27;;;4.60;82.00;;;;;;5051555;28;20154;-87
2022/01/22 01:03:07;;;;;;;25.50;19.75;;;4.60;82.00;;;;;;5049248;28;20056;-87
2022/01/22 01:05:34;;;;;;;26.27;21.40;;;4.60;82.00;;;;;;5050220;28;20061;-87
2022/01/22 01:08:03;;;;;;;26.20;20.38;;;4.60;82.00;;;;;;5050092;28;20052;-87
2022/01/22 01:10:30;;;;;;;26.38;20.67;;;4.60;82.00;;;;;;5051893;28;20041;-87
2022/01/22 01:12:57;;;;;;;27.38;21.58;;;4.60;82.00;;;;;;5053109;28;20045;-87
2022/01/22 01:15:55;;;;;;;28.83;22.08;;;4.60;82.10;;;;;;5051196;28;20051;-86
2022/01/22 01:32:19;;;;;;;28.35;21.55;;;4.60;82.10;;;;;;5046936;28;20056;-87
2022/01/22 01:34:49;;;;;;;27.55;21.52;;;4.50;82.10;;;;;;5051060;28;20042;-86
2022/01/22 01:37:18;;;;;;;28.20;22.02;;;4.60;82.10;;;;;;5047270;28;20049;-86
2022/01/22 01:39:49;;;;;;;27.35;21.85;;;4.60;82.10;;;;;;5050005;28;20131;-86
2022/01/22 01:45:05;;;;;;;26.40;21.52;;;4.60;82.10;;;;;;5050778;28;20063;-86
2022/01/22 01:47:34;;;;;;;29.73;21.83;;;4.50;82.10;;;;;;5050693;28;20045;-87
2022/01/22 01:50:01;;;;;;;26.50;21.70;;;4.60;82.10;;;;;;5050747;28;20037;-87
2022/01/22 01:52:51;;;;;;;27.02;21.98;;;4.50;82.20;;;;;;5051346;28;20073;-87
2022/01/22 01:55:31;;;;;;;31.67;23.55;;;4.50;82.10;;;;;;5048902;28;20524;-87
2022/01/22 01:57:59;;;;;;;27.85;22.67;;;4.60;82.20;;;;;;5052298;28;20053;-87
2022/01/22 02:00:26;;;;;;;24.80;21.27;;;4.50;82.10;;;;;;5049136;28;20045;-87
2022/01/22 02:02:54;;;;;;;30.88;22.73;;;4.60;82.20;;;;;;5050267;28;20045;-86
2022/01/22 02:05:23;;;;;;;36.25;24.45;;;4.60;82.10;;;;;;5050032;28;20118;-86
2022/01/22 02:07:54;;;;;;;30.20;22.45;;;4.60;82.10;;;;;;5035101;28;20398;-86
2022/01/22 02:10:26;;;;;;;27.08;21.63;;;4.50;82.10;;;;;;5052065;28;20045;-87
2022/01/22 02:23:45;;;;;;;27.88;23.15;;;4.60;82.10;;;;;;5049963;28;20516;-87
2022/01/22 02:26:15;;;;;;;32.92;23.02;;;4.60;82.10;;;;;;5050300;28;20045;-87
2022/01/22 02:28:48;;;;;;;29.48;22.55;;;4.60;82.10;;;;;;5050259;28;20048;-86
2022/01/22 02:31:40;;;;;;;28.08;22.95;;;4.60;82.10;;;;;;5051727;28;20139;-87
2022/01/22 02:34:25;;;;;;;28.30;23.02;;;4.60;82.10;;;;;;5051201;28;20417;-87
2022/01/22 02:37:07;;;;;;;29.52;22.40;;;4.60;82.10;;;;;;5051176;28;20049;-87
2022/01/22 02:39:56;;;;;;;27.02;21.60;;;4.60;82.10;;;;;;5050283;28;20049;-87
2022/01/22 02:42:28;;;;;;;31.13;23.17;;;4.60;82.10;;;;;;5049893;28;20053;-87
2022/01/22 02:44:55;;;;;;;34.15;24.85;;;4.50;82.10;;;;;;5049897;28;20049;-86
2022/01/22 02:47:23;;;;;;;32.60;25.50;;;4.60;82.10;;;;;;5049893;28;20049;-87
2022/01/22 02:49:51;;;;;;;29.52;22.58;;;4.60;82.10;;;;;;5049664;28;20594;-87
2022/01/22 02:52:19;;;;;;;32.55;23.67;;;4.60;82.10;;;;;;5052029;28;20057;-87
2022/01/22 02:54:47;;;;;;;30.23;24.15;;;4.60;82.10;;;;;;5050671;28;20067;-87
2022/01/22 02:57:14;;;;;;;30.75;23.33;;;4.60;82.10;;;;;;5048707;28;20131;-87
2022/01/22 02:59:42;;;;;;;31.27;23.38;;;4.60;82.10;;;;;;5049774;28;20057;-86
2022/01/22 03:02:13;;;;;;;32.90;25.23;;;4.60;82.10;;;;;;5049858;28;20049;-86
2022/01/22 03:04:41;;;;;;;31.58;24.20;;;4.60;82.10;;;;;;5049673;28;20046;-87
2022/01/22 03:07:08;;;;;;;31.73;24.30;;;4.60;82.10;;;;;;5051971;28;20049;-88
2022/01/22 03:09:44;;;;;;;29.85;23.35;;;4.60;82.10;;;;;;5049747;28;20055;-87
2022/01/22 03:13:09;;;;;;;30.17;23.15;;;4.60;82.10;;;;;;5048726;28;20049;-86
2022/01/22 03:29:03;;;;;;;29.50;24.40;;;4.60;82.10;;;;;;5033888;28;20048;-87
2022/01/22 03:31:31;;;;;;;29.92;23.58;;;4.70;82.10;;;;;;5049000;28;20053;-86
2022/01/22 03:33:58;;;;;;;28.65;23.42;;;4.60;82.10;;;;;;5048952;28;20426;-87
2022/01/22 03:36:30;;;;;;;32.25;23.95;;;4.60;82.10;;;;;;5048810;28;20056;-86
2022/01/22 03:38:57;;;;;;;29.55;23.02;;;4.60;82.10;;;;;;5048618;28;20535;-87
2022/01/22 03:41:24;;;;;;;31.88;23.77;;;4.70;82.10;;;;;;5048799;28;20049;-87
2022/01/22 03:43:52;;;;;;;33.22;24.45;;;4.60;82.10;;;;;;5050545;28;20044;-86
2022/01/22 03:46:20;;;;;;;28.38;23.33;;;4.60;82.10;;;;;;5052798;28;20060;-86
2022/01/22 03:48:47;;;;;;;29.77;23.48;;;4.60;82.10;;;;;;5051776;28;20053;-87
2022/01/22 03:51:14;;;;;;;30.38;23.60;;;4.70;82.10;;;;;;5052373;28;20091;-87
2022/01/22 03:53:41;;;;;;;31.27;22.85;;;4.70;82.10;;;;;;5052093;28;20045;-86
2022/01/22 03:56:10;;;;;;;31.27;23.90;;;4.70;82.10;;;;;;5052217;28;20132;-86
2022/01/22 03:58:39;;;;;;;31.42;24.33;;;4.70;82.10;;;;;;5052059;28;20065;-88
2022/01/22 04:03:42;;;;;;;31.48;24.08;;;4.70;82.20;;;;;;5052233;28;20414;-88
2022/01/22 04:06:41;;;;;;;29.38;23.42;;;4.70;82.20;;;;;;5046675;28;20067;-86
2022/01/22 04:09:04;;;;;;;31.00;23.85;;;4.70;82.20;;;;;;5051240;28;20044;-87
2022/01/22 04:11:34;;;;;;;31.23;23.23;;;4.70;82.20;;;;;;5052563;28;20052;-87
2022/01/22 04:14:04;;;;;;;31.25;23.80;;;4.70;82.20;;;;;;5052581;28;20055;-86
2022/01/22 04:16:32;;;;;;;31.90;24.70;;;4.70;82.20;;;;;;5052626;28;20056;-86
2022/01/22 04:24:49;;;;;;;31.90;24.58;;;4.70;82.20;;;;;;5052258;28;20059;-87
2022/01/22 04:27:22;;;;;;;31.27;23.73;;;4.70;82.20;;;;;;5052129;28;20051;-87
2022/01/22 04:29:51;;;;;;;33.28;24.50;;;4.70;82.30;;;;;;5052142;28;20498;-86
2022/01/22 04:32:18;;;;;;;32.38;24.20;;;4.70;82.30;;;;;;5050692;28;20501;-87
2022/01/22 04:34:45;;;;;;;31.40;24.30;;;4.70;82.30;;;;;;5052103;28;20045;-87
2022/01/22 04:37:13;;;;;;;30.23;23.77;;;4.70;82.30;;;;;;5054170;28;20049;-87
2022/01/22 04:39:40;;;;;;;29.02;22.80;;;4.70;82.30;;;;;;5051819;28;20117;-86
2022/01/22 04:42:08;;;;;;;32.30;24.52;;;4.70;82.30;;;;;;5051901;28;20123;-87
2022/01/22 04:44:41;;;;;;;32.42;23.92;;;4.70;82.30;;;;;;5050556;28;20405;-87
2022/01/22 04:55:14;;;;;;;32.50;23.23;;;4.70;82.40;;;;;;5051163;28;20045;-87
2022/01/22 04:57:46;;;;;;;36.00;24.75;;;4.70;82.40;;;;;;5049875;28;20171;-87
2022/01/22 05:00:16;;;;;;;33.00;24.10;;;4.70;82.40;;;;;;5049219;28;20124;-86
2022/01/22 05:02:43;;;;;;;31.08;24.35;;;4.70;82.40;;;;;;5049314;28;20047;-87
2022/01/22 05:05:11;;;;;;;31.20;23.48;;;4.70;82.40;;;;;;5049539;28;20057;-87
2022/01/22 05:07:38;;;;;;;30.80;23.42;;;4.70;82.40;;;;;;5049727;28;20063;-87
2022/01/22 05:10:06;;;;;;;31.73;23.70;;;4.70;82.40;;;;;;5051486;28;20049;-86
2022/01/22 05:12:33;;;;;;;32.03;23.30;;;4.70;82.40;;;;;;5048152;28;20041;-87
2022/01/22 05:15:00;;;;;;;31.77;22.92;;;4.70;82.50;;;;;;5048876;28;20053;-86
2022/01/22 05:17:27;;;;;;;33.67;23.65;;;4.70;82.50;;;;;;5031299;28;20045;-87
2022/01/22 05:20:02;;;;;;;33.97;24.33;;;4.70;82.50;;;;;;5049362;28;20053;-87
2022/01/22 05:25:01;;;;;;;33.63;24.20;;;4.70;82.50;;;;;;5049000;28;20053;-88
2022/01/22 05:27:55;;;;;;;32.92;24.27;;;4.70;82.50;;;;;;5049220;28;20049;-86
2022/01/22 05:38:08;;;;;;;31.92;23.30;;;4.70;82.60;;;;;;5037824;28;20045;-87
2022/01/22 05:40:36;;;;;;;34.05;23.58;;;4.70;82.60;;;;;;5050989;28;20154;-87
2022/01/22 05:43:06;;;;;;;33.28;22.75;;;4.70;82.60;;;;;;5052580;28;20044;-88
2022/01/22 05:45:33;;;;;;;32.20;23.77;;;4.70;82.60;;;;;;5050850;28;20049;-86
2022/01/22 05:48:00;;;;;;;31.77;23.33;;;4.80;82.60;;;;;;5050722;28;20040;-87
2022/01/22 05:50:34;;;;;;;33.22;23.13;;;4.70;82.60;;;;;;5049292;28;20048;-87
2022/01/22 05:53:08;;;;;;;33.22;22.80;;;4.70;82.60;;;;;;5050754;28;20045;-87
2022/01/22 06:01:16;;;;;;;33.22;22.85;;;4.70;82.60;;;;;;5050677;28;20059;-87
2022/01/22 06:03:44;;;;;;;34.83;23.27;;;4.70;82.60;;;;;;5049666;28;20049;-88
2022/01/22 06:06:11;;;;;;;34.13;22.80;;;4.70;82.70;;;;;;5049075;28;20061;-87
2022/01/22 06:08:45;;;;;;;33.10;23.08;;;4.70;82.70;;;;;;5047993;28;20041;-87
2022/01/22 06:11:21;;;;;;;34.45;23.92;;;4.70;82.70;;;;;;5048887;28;20560;-86
2022/01/22 06:13:49;;;;;;;34.97;24.27;;;4.80;82.80;;;;;;5032672;28;20187;-86
2022/01/22 06:16:20;;;;;;;32.72;22.95;;;4.70;82.80;;;;;;5046854;28;20052;-87
2022/01/22 06:18:48;;;;;;;37.10;23.77;;;4.80;82.80;;;;;;5049108;28;20052;-88
2022/01/22 06:21:15;;;;;;;32.30;23.80;;;4.80;82.80;;;;;;5048916;28;20402;-88
2022/01/22 06:23:45;;;;;;;34.53;23.33;;;4.70;82.80;;;;;;5048958;28;20053;-88
2022/01/22 06:26:13;;;;;;;34.83;23.88;;;4.80;82.80;;;;;;5049417;28;20037;-88
2022/01/22 06:28:41;;;;;;;33.45;23.40;;;4.80;82.90;;;;;;5048570;28;20067;-88
2022/01/22 06:31:09;;;;;;;33.95;24.52;;;4.80;82.80;;;;;;5049722;28;20599;-87
2022/01/22 06:33:36;;;;;;;34.53;24.10;;;4.80;82.80;;;;;;5049230;28;20294;-87
2022/01/22 06:36:04;;;;;;;35.80;23.85;;;4.70;82.80;;;;;;5047902;28;20071;-87
2022/01/22 06:38:33;;;;;;;34.97;25.05;;;4.80;82.90;;;;;;5049443;28;20509;-88
2022/01/22 06:43:46;;;;;;;33.25;24.38;;;4.80;82.90;;;;;;5049755;28;20536;-88
2022/01/22 06:46:13;;;;;;;35.90;24.98;;;4.80;82.90;;;;;;5051781;28;20077;-87
2022/01/22 06:48:41;;;;;;;34.80;24.38;;;4.80;82.90;;;;;;5049180;28;20052;-88
2022/01/22 06:51:09;;;;;;;33.78;23.30;;;4.80;82.90;;;;;;5049648;28;20080;-87
2022/01/22 06:53:40;;;;;;;33.75;22.63;;;4.80;82.90;;;;;;5049469;28;20154;-88
2022/01/22 06:56:18;;;;;;;36.75;24.85;;;4.80;82.90;;;;;;5049002;28;20045;-87
2022/01/22 06:58:45;;;;;;;34.38;24.17;;;4.80;82.90;;;;;;5049529;28;20078;-88
2022/01/22 07:01:12;;;;;;;36.05;23.75;;;4.80;82.90;;;;;;5051407;28;20076;-88
2022/01/22 07:03:40;;;;;;;40.63;25.55;;;4.80;83.00;;;;;;5048972;28;20515;-87
2022/01/22 07:06:07;;;;;;;37.92;26.52;;;4.80;83.00;;;;;;5049599;28;20539;-87
2022/01/22 07:08:34;;;;;;;41.20;25.27;;;4.80;83.00;;;;;;5048239;28;20394;-87
2022/01/22 07:11:01;;;;;;;39.55;25.80;;;4.80;83.00;;;;;;5048903;28;20136;-87
2022/01/22 07:13:28;;;;;;;38.03;25.23;;;4.80;83.00;;;;;;5050121;28;20053;-86
2022/01/22 07:15:56;;;;;;;37.95;25.42;;;4.80;83.00;;;;;;5050951;28;20096;-88
2022/01/22 07:18:23;;;;;;;36.58;24.05;;;4.80;83.00;;;;;;5051537;28;20048;-87
2022/01/22 07:20:51;;;;;;;39.05;24.92;;;4.80;83.10;;;;;;5051541;28;20523;-87
2022/01/22 07:26:05;;;;;;;37.92;25.55;;;4.80;83.00;;;;;;5038685;28;20503;-87
2022/01/22 07:28:32;;;;;;;37.65;24.50;;;4.80;83.00;;;;;;5052232;28;20080;-87
2022/01/22 07:31:03;;;;;;;35.63;24.70;;;4.80;83.10;;;;;;5054875;28;20390;-86
2022/01/22 07:33:31;;;;;;;39.92;25.77;;;4.80;83.10;;;;;;5051444;28;20423;-88
2022/01/22 07:35:58;;;;;;;40.25;26.85;;;4.80;83.10;;;;;;5052792;28;20562;-88
2022/01/22 07:38:25;;;;;;;38.78;26.48;;;4.80;83.10;;;;;;5052751;28;20128;-88
2022/01/22 07:40:52;;;;;;;38.60;26.05;;;4.80;83.10;;;;;;5051217;28;20044;-89
2022/01/22 07:43:20;;;;;;;44.53;26.73;;;4.80;83.10;;;;;;5054678;28;20049;-87
2022/01/22 07:45:47;;;;;;;38.45;25.52;;;4.80;83.20;;;;;;5053333;28;20061;-87
2022/01/22 07:48:14;;;;;;;37.42;25.48;;;4.80;83.20;;;;;;5050914;28;20053;-87
2022/01/22 07:50:41;;;;;;;39.63;26.15;;;4.80;83.20;;;;;;5052612;28;20045;-86
2022/01/22 07:53:08;;;;;;;41.70;26.38;;;4.80;83.20;;;;;;5052594;28;20067;-87
2022/01/22 07:55:35;;;;;;;40.60;26.48;;;4.80;83.20;;;;;;5051953;28;20056;-87
2022/01/22 07:58:02;;;;;;;39.05;25.75;;;4.80;83.20;;;;;;5054569;28;20069;-87
2022/01/22 08:00:30;;;;;;;40.15;26.05;;;4.80;83.20;;;;;;5050655;28;20053;-87
2022/01/22 08:02:57;;;;;;;37.78;25.30;;;4.80;83.20;;;;;;5051919;28;20461;-86
2022/01/22 08:05:24;;;;;;;41.35;27.42;;;4.80;83.30;;;;;;5051343;28;20052;-87
2022/01/22 08:07:52;;;;;;;38.15;26.17;;;4.80;83.30;;;;;;5052087;28;20047;-88
2022/01/22 08:10:19;;;;;;;40.72;26.35;;;4.80;83.30;;;;;;5053985;28;20065;-88
2022/01/22 08:12:49;;;;;;;36.00;24.75;;;4.80;83.30;;;;;;5052823;28;20508;-87
2022/01/22 08:15:17;;;;;;;36.92;26.42;;;4.80;83.30;;;;;;5052209;28;20139;-87
2022/01/22 08:17:45;;;;;;;40.58;26.05;;;4.80;83.40;;;;;;5051831;28;20405;-87
2022/01/22 08:20:14;;;;;;;40.75;27.58;;;4.80;83.40;;;;;;5052335;28;20507;-87
2022/01/22 08:22:42;;;;;;;45.95;27.25;;;4.80;83.40;;;;;;5051894;28;20045;-87
2022/01/22 08:25:10;;;;;;;44.17;28.00;;;4.80;83.40;;;;;;5052499;28;20057;-87
2022/01/22 08:28:52;;;;;;;40.97;26.95;;;4.70;83.40;;;;;;5050601;28;20711;-87
2022/01/22 08:30:30;;;;;;;39.85;25.83;;;4.80;83.40;;;;;;5051011;28;20048;-88
2022/01/22 08:35:55;;;;;;;41.53;26.42;;;4.80;83.40;;;;;;5051770;28;20584;-87
2022/01/22 08:38:25;;;;;;;41.28;25.25;;;4.80;83.40;;;;;;5049866;28;20052;-87
2022/01/22 08:40:53;;;;;;;41.55;26.65;;;4.80;83.40;;;;;;5036107;28;20052;-87
2022/01/22 08:43:22;;;;;;;43.40;27.10;;;4.80;83.50;;;;;;5052247;28;20131;-88
2022/01/22 08:45:50;;;;;;;39.78;26.77;;;4.80;83.50;;;;;;5064323;28;20049;-88
2022/01/22 08:48:21;;;;;;;43.45;26.55;;;4.80;83.50;;;;;;5046154;28;20052;-87
2022/01/22 08:50:49;;;;;;;41.70;27.35;;;4.80;83.50;;;;;;5050423;28;20139;-88
2022/01/22 08:53:36;;;;;;;44.30;26.50;;;4.80;83.50;;;;;;5050933;28;20045;-88
2022/01/22 08:56:05;;;;;;;41.13;25.92;;;4.80;83.60;;;;;;5051213;28;20131;-88
2022/01/22 08:58:32;;;;;;;40.90;26.35;;;4.80;83.60;;;;;;5050500;28;20041;-88
2022/01/22 09:00:59;;;;;;;42.80;26.00;;;4.80;83.60;;;;;;5052581;28;20136;-86
2022/01/22 09:03:27;;;;;;;40.40;26.23;;;4.80;83.60;;;;;;5051543;28;20128;-87
2022/01/22 09:05:55;;;;;;;46.65;27.60;;;4.80;83.60;;;;;;5049636;28;20425;-88
2022/01/22 09:08:24;;;;;;;41.70;25.85;;;4.80;83.60;;;;;;5051364;28;20037;-87
2022/01/22 09:10:53;;;;;;;40.33;26.45;;;4.80;83.60;;;;;;5036083;28;20045;-87
2022/01/22 09:13:21;;;;;;;40.63;26.00;;;4.90;83.60;;;;;;5053366;28;20440;-86
2022/01/22 09:15:50;;;;;;;38.67;25.85;;;4.80;83.60;;;;;;5049373;28;20205;-87
2022/01/22 09:18:17;;;;;;;40.50;26.15;;;4.80;83.60;;;;;;5050016;28;20573;-87
2022/01/22 09:21:01;;;;;;;40.55;26.30;;;4.90;83.60;;;;;;5050811;28;20044;-87
2022/01/22 09:23:29;;;;;;;42.95;26.05;;;4.90;83.60;;;;;;5051315;28;20135;-87
2022/01/22 09:25:57;;;;;;;38.40;25.85;;;4.90;83.60;;;;;;5050111;28;20051;-88
2022/01/22 09:28:25;;;;;;;36.58;24.52;;;4.90;83.60;;;;;;5052615;28;20045;-87
2022/01/22 09:30:53;;;;;;;40.13;26.08;;;4.90;83.70;;;;;;5049890;28;20507;-87
2022/01/22 09:33:21;;;;;;;40.88;26.55;;;4.90;83.70;;;;;;5050961;28;20049;-87
2022/01/22 09:35:48;;;;;;;43.63;25.98;;;4.90;83.70;;;;;;5049315;28;20059;-87
2022/01/22 09:38:15;;;;;;;42.22;27.13;;;4.90;83.70;;;;;;5050864;28;20045;-87
2022/01/22 09:40:42;;;;;;;38.55;26.23;;;4.90;83.70;;;;;;5050871;28;20045;-87
2022/01/22 09:43:11;;;;;;;38.90;25.55;;;4.90;83.70;;;;;;5052708;28;20498;-88
2022/01/22 09:45:39;;;;;;;38.92;25.95;;;4.90;83.70;;;;;;5048003;28;20143;-87
2022/01/22 09:48:06;;;;;;;40.60;27.33;;;4.90;83.70;;;;;;5050698;28;20147;-88
2022/01/22 09:50:35;;;;;;;40.95;26.73;;;4.90;83.70;;;;;;5050293;28;20052;-86
2022/01/22 09:53:03;;;;;;;41.47;27.00;;;4.90;83.70;;;;;;5050699;28;20055;-87
2022/01/22 09:55:30;;;;;;;40.88;26.85;;;4.90;83.70;;;;;;5050385;28;20112;-88
2022/01/22 09:57:58;;;;;;;40.95;26.70;;;4.90;83.70;;;;;;5052446;28;20060;-87
2022/01/22 10:00:26;;;;;;;41.50;27.48;;;4.90;83.70;;;;;;5050298;28;20044;-88
2022/01/22 10:02:56;;;;;;;39.53;26.33;;;5.00;83.70;;;;;;5050564;28;20040;-87
2022/01/22 10:05:26;;;;;;;40.28;25.63;;;4.90;83.70;;;;;;5050015;28;20135;-88
2022/01/22 10:07:54;;;;;;;39.72;25.63;;;5.00;83.70;;;;;;5050646;28;20045;-87
2022/01/22 10:10:21;;;;;;;41.47;26.00;;;5.00;83.70;;;;;;5051985;28;20509;-88
2022/01/22 10:12:52;;;;;;;37.60;26.77;;;5.00;83.70;;;;;;5048561;28;20527;-87
2022/01/22 10:15:21;;;;;;;44.17;27.30;;;5.00;83.70;;;;;;5050309;28;20055;-87
2022/01/22 10:17:51;;;;;;;42.13;27.00;;;5.00;83.70;;;;;;5050190;28;20045;-88
2022/01/22 10:20:21;;;;;;;45.03;27.50;;;5.00;83.70;;;;;;5048840;28;20045;-86
2022/01/22 10:22:50;;;;;;;39.67;26.50;;;5.00;83.70;;;;;;5032040;28;20050;-87
2022/01/22 10:25:27;;;;;;;43.08;27.52;;;5.00;83.70;;;;;;5048239;28;20055;-88
2022/01/22 10:28:06;;;;;;;40.40;27.50;;;5.00;83.70;;;;;;5051298;28;20048;-87
2022/01/22 10:30:37;;;;;;;41.15;27.48;;;5.00;83.70;;;;;;5050063;28;20055;-87
2022/01/22 10:33:31;;;;;;;40.65;26.88;;;5.10;83.70;;;;;;5049676;28;20052;-86
2022/01/22 10:36:21;;;;;;;40.92;26.65;;;5.10;83.70;;;;;;5049934;28;20444;-87
2022/01/22 10:38:52;;;;;;;43.72;27.33;;;5.10;83.70;;;;;;5049886;28;20045;-86
2022/01/22 10:41:52;;;;;;;43.80;27.77;;;5.10;83.60;;;;;;5050268;28;20055;-86
2022/01/22 10:44:46;;;;;;;42.53;26.67;;;5.10;83.70;;;;;;5017634;28;20469;-87
2022/01/22 10:47:22;;;;;;;42.25;28.35;;;5.10;83.70;;;;;;5026342;28;20042;-87
2022/01/22 10:49:49;;;;;;;40.95;26.95;;;5.20;83.70;;;;;;5013802;28;20156;-86
2022/01/22 10:52:16;;;;;;;41.60;26.95;;;5.20;83.60;;;;;;5015691;28;20076;-87
2022/01/22 10:54:46;;;;;;;41.65;27.30;;;5.20;83.60;;;;;;5022322;28;20563;-86
2022/01/22 10:57:14;;;;;;;42.75;27.30;;;5.20;83.70;;;;;;5022198;28;20081;-87
2022/01/22 10:59:55;;;;;;;40.78;27.27;;;5.20;83.60;;;;;;5022154;28;20140;-87
2022/01/22 11:02:35;;;;;;;42.05;27.60;;;5.20;83.60;;;;;;5017525;28;20546;-88
2022/01/22 11:05:04;;;;;;;42.70;27.80;;;5.30;83.60;;;;;;5013993;28;20545;-86
2022/01/22 11:07:31;;;;;;;43.22;27.25;;;5.30;83.60;;;;;;5033478;28;20056;-87
2022/01/22 11:10:05;;;;;;;42.22;27.50;;;5.20;83.60;;;;;;5016664;28;20140;-87
2022/01/22 11:12:32;;;;;;;39.85;27.02;;;5.20;83.60;;;;;;5028570;28;20045;-87
2022/01/22 11:14:59;;;;;;;47.15;29.30;;;5.30;83.60;;;;;;5028112;28;20052;-87
2022/01/22 11:17:32;;;;;;;42.55;27.65;;;5.30;83.60;;;;;;5001307;28;20049;-88
2022/01/22 11:20:01;;;;;;;40.08;27.30;;;5.30;83.60;;;;;;5038055;28;20041;-86
2022/01/22 11:22:30;;;;;;;44.22;28.42;;;5.30;83.50;;;;;;5054808;28;20122;-87
2022/01/22 11:24:59;;;;;;;41.95;28.13;;;5.30;83.50;;;;;;5054981;28;20436;-86
2022/01/22 11:27:27;;;;;;;42.55;27.38;;;5.30;83.50;;;;;;5053401;28;20528;-87
2022/01/22 11:30:10;;;;;;;41.92;28.02;;;5.40;83.50;;;;;;5053210;28;20045;-87
2022/01/22 11:32:48;;;;;;;43.17;28.45;;;5.40;83.50;;;;;;5051792;28;20041;-87
2022/01/22 11:35:28;;;;;;;42.13;27.77;;;5.40;83.50;;;;;;5053351;28;20040;-87
2022/01/22 11:38:15;;;;;;;42.38;27.90;;;5.40;83.50;;;;;;5038202;28;20056;-87
2022/01/22 11:41:01;;;;;;;38.95;27.55;;;5.40;83.50;;;;;;5052978;28;20515;-87
2022/01/22 11:44:09;;;;;;;41.50;28.23;;;5.40;83.40;;;;;;5050733;28;20053;-87
2022/01/22 11:46:51;;;;;;;40.17;27.00;;;5.40;83.40;;;;;;5051355;28;20088;-87
2022/01/22 11:49:27;;;;;;;41.50;28.15;;;5.40;83.40;;;;;;5051192;28;20052;-86
2022/01/22 11:52:14;;;;;;;45.20;29.67;;;5.40;83.40;;;;;;5054013;28;20048;-87
2022/01/22 11:54:59;;;;;;;39.67;27.90;;;5.40;83.40;;;;;;5051594;28;20052;-87
2022/01/22 11:57:28;;;;;;;41.45;28.05;;;5.40;83.40;;;;;;5052815;28;20053;-87
2022/01/22 12:00:21;;;;;;;41.53;27.13;;;5.40;83.30;;;;;;5052528;28;20045;-87
2022/01/22 12:03:03;;;;;;;44.17;27.00;;;5.50;83.40;;;;;;5052643;28;20044;-87
2022/01/22 12:05:53;;;;;;;41.63;27.90;;;5.50;83.40;;;;;;5051999;28;20045;-87
2022/01/22 12:08:22;;;;;;;40.92;27.40;;;5.50;83.30;;;;;;5052605;28;20513;-86
2022/01/22 12:14:28;;;;;;;43.40;29.00;;;5.50;83.40;;;;;;5035967;28;20413;-87
2022/01/22 12:16:44;;;;;;;42.97;28.17;;;5.50;83.30;;;;;;5050461;28;20051;-86
2022/01/22 12:19:36;;;;;;;40.38;28.35;;;5.50;83.30;;;;;;5054745;28;20052;-86
2022/01/22 12:22:32;;;;;;;40.58;27.80;;;5.50;83.30;;;;;;5071079;28;20059;-87
2022/01/22 12:25:08;;;;;;;41.67;28.63;;;5.50;83.30;;;;;;5054332;28;20132;-87
2022/01/22 12:27:46;;;;;;;42.67;27.95;;;5.50;83.20;;;;;;5052192;28;20441;-86
2022/01/22 12:30:14;;;;;;;45.72;28.83;;;5.60;83.30;;;;;;5052113;28;20061;-88
2022/01/22 12:32:51;;;;;;;41.95;27.77;;;5.60;83.20;;;;;;5052304;28;20055;-86
2022/01/22 12:35:32;;;;;;;41.58;27.77;;;5.60;83.20;;;;;;5051049;28;20045;-87
2022/01/22 12:38:29;;;;;;;44.20;29.05;;;5.60;83.20;;;;;;5037658;28;20045;-87
2022/01/22 12:41:15;;;;;;;42.67;27.60;;;5.60;83.20;;;;;;5037259;28;20049;-87
2022/01/22 12:43:44;;;;;;;40.70;28.52;;;5.60;83.20;;;;;;5051690;28;20048;-87
2022/01/22 12:46:12;;;;;;;43.30;29.80;;;5.60;83.20;;;;;;5053900;28;20494;-87
2022/01/22 12:48:41;;;;;;;42.40;30.10;;;5.60;83.20;;;;;;5051722;28;20514;-87
2022/01/22 12:51:10;;;;;;;42.47;29.20;;;5.60;83.20;;;;;;5051779;28;20049;-87
2022/01/22 12:53:41;;;;;;;45.00;29.40;;;5.60;83.10;;;;;;5051923;28;20053;-87
2022/01/22 12:58:38;;;;;;;40.80;28.13;;;5.70;83.10;;;;;;5052323;28;20128;-88
2022/01/22 13:01:26;;;;;;;47.70;31.45;;;5.60;83.10;;;;;;5052253;28;20051;-87
2022/01/22 13:03:55;;;;;;;41.85;29.08;;;5.70;83.10;;;;;;5052641;28;20561;-87
2022/01/22 13:06:25;;;;;;;43.28;29.73;;;5.70;83.10;;;;;;5051219;28;20056;-86
2022/01/22 13:08:59;;;;;;;45.80;30.77;;;5.70;83.10;;;;;;5050265;28;20134;-88
2022/01/22 13:11:28;;;;;;;42.78;32.53;;;5.70;83.10;;;;;;5051401;28;20132;-87
2022/01/22 13:13:55;;;;;;;47.10;32.83;;;5.70;83.10;;;;;;5051148;28;20041;-86
2022/01/22 13:16:23;;;;;;;47.63;31.90;;;5.70;83.00;;;;;;5052711;28;20040;-86
2022/01/22 13:18:57;;;;;;;43.25;30.73;;;5.70;83.00;;;;;;5050569;28;20053;-87
2022/01/22 13:21:28;;;;;;;42.97;30.85;;;5.70;83.00;;;;;;5051226;28;20044;-87
2022/01/22 13:24:07;;;;;;;40.33;30.00;;;5.70;83.00;;;;;;5050011;28;20044;-87
2022/01/22 13:26:43;;;;;;;45.00;30.67;;;5.70;83.00;;;;;;5051099;28;20501;-88
2022/01/22 13:29:42;;;;;;;41.85;30.85;;;5.70;83.00;;;;;;5049645;28;20198;-87
2022/01/22 13:32:43;;;;;;;43.72;31.50;;;5.70;83.00;;;;;;5036499;28;20424;-87
2022/01/22 13:49:26;;;;;;;45.67;30.83;;;5.70;83.00;;;;;;5026895;28;20081;-87
2022/01/22 13:52:06;;;;;;;41.80;31.40;;;5.70;82.90;;;;;;5029575;28;20421;-87
2022/01/22 13:54:39;;;;;;;44.53;31.38;;;5.70;82.90;;;;;;5027096;28;20045;-87
2022/01/22 13:57:09;;;;;;;41.83;29.52;;;5.70;83.00;;;;;;5009957;28;20140;-87
2022/01/22 13:59:39;;;;;;;40.80;29.50;;;5.70;83.00;;;;;;5019153;28;20129;-86
2022/01/22 14:02:36;;;;;;;41.78;31.83;;;5.70;82.90;;;;;;5027193;28;20056;-86
2022/01/22 14:05:07;;;;;;;41.10;31.45;;;5.70;82.90;;;;;;5014479;28;20544;-87
2022/01/22 14:07:38;;;;;;;42.47;30.05;;;5.70;82.90;;;;;;5028636;28;20060;-87
2022/01/22 14:10:12;;;;;;;42.72;30.75;;;5.70;82.90;;;;;;5030436;28;20053;-87
2022/01/22 14:12:50;;;;;;;42.00;30.30;;;5.70;82.90;;;;;;5026437;28;20395;-87
2022/01/22 14:15:27;;;;;;;40.75;30.17;;;5.70;82.90;;;;;;5026861;28;20083;-87
2022/01/22 14:18:08;;;;;;;38.38;28.75;;;5.70;82.90;;;;;;5026724;28;20484;-87
2022/01/22 14:20:37;;;;;;;39.22;29.52;;;5.70;82.90;;;;;;5035093;28;20041;-87
2022/01/22 14:23:09;;;;;;;38.55;29.25;;;5.70;82.90;;;;;;5050338;28;20048;-87
2022/01/22 14:26:03;;;;;;;37.67;29.35;;;5.70;82.90;;;;;;5049997;28;20081;-86
2022/01/22 14:28:42;;;;;;;;;;;5.70;82.90;;;;;;5048502;28;20436;-86
2022/01/22 14:31:26;;;;;;;43.47;30.05;;;5.70;82.90;;;;;;5051340;28;19927;-87
2022/01/22 14:33:55;;;;;;;38.63;29.50;;;5.70;82.90;;;;;;5050020;28;20048;-87
2022/01/22 14:36:29;;;;;;;36.63;28.65;;;5.70;82.90;;;;;;5049894;28;20049;-87
2022/01/22 14:39:12;;;;;;;38.80;29.15;;;5.70;82.90;;;;;;5049922;28;20040;-87
2022/01/22 14:44:50;;;;;;;37.92;28.38;;;5.70;82.90;;;;;;5049949;28;20049;-86
2022/01/22 14:47:19;;;;;;;40.63;27.50;;;5.70;83.00;;;;;;5050043;28;20060;-88
2022/01/22 14:49:50;;;;;;;35.72;27.80;;;5.70;83.00;;;;;;5050193;28;20057;-87